N24KM KCDW-KORL
Flight info
| Callsign | N24KM |
|---|---|
| Flight time | N/A |
| Altitude | 40000 |
| Route | ELVAE COL WHITE Q409 CRPLR Q85 PBCUP/N0394F430 Q85 LPERD TTHOR3 |
| Aircraft | C25B/M-SDE2E3FGHRWXY/LB1 |
Departure
| Time | N/A |
|---|---|
| Airport | Essex County Airport (KCDW) |
Arrival
| Time | 2026-05-05 01:24 |
|---|---|
| Airport | Orlando Executive Airport (KORL) |
| Time | Latitude | Longitude | Altitude | Speed | Heading |
|---|---|---|---|---|---|
| 2026-05-04 23:54 | 34.98356 | -78.33834 | 40176 ft | 357 kts | 224° |
| 2026-05-04 23:55 | 34.94428 | -78.37513 | 40177 ft | 356 kts | 224° |
| 2026-05-04 23:56 | 34.88562 | -78.43000 | 40177 ft | 354 kts | 223° |
| 2026-05-04 23:56 | 34.84685 | -78.46618 | 40171 ft | 353 kts | 224° |
| 2026-05-04 23:57 | 34.80788 | -78.50252 | 40169 ft | 353 kts | 224° |
| 2026-05-04 23:57 | 34.76892 | -78.53882 | 40178 ft | 352 kts | 224° |
| 2026-05-04 23:58 | 34.73003 | -78.57502 | 40181 ft | 352 kts | 224° |
| 2026-05-04 23:58 | 34.69113 | -78.61115 | 40187 ft | 351 kts | 223° |
| 2026-05-04 23:59 | 34.65262 | -78.64690 | 40187 ft | 351 kts | 223° |
| 2026-05-04 23:59 | 34.61381 | -78.68286 | 40196 ft | 351 kts | 223° |
| 2026-05-05 00:00 | 34.57502 | -78.71877 | 40191 ft | 351 kts | 223° |
| 2026-05-05 00:00 | 34.53619 | -78.75467 | 40166 ft | 351 kts | 224° |
| 2026-05-05 00:01 | 34.49733 | -78.79057 | 40172 ft | 351 kts | 224° |
| 2026-05-05 00:01 | 34.45866 | -78.82610 | 40177 ft | 351 kts | 223° |
| 2026-05-05 00:02 | 34.41910 | -78.86088 | 40177 ft | 352 kts | 221° |
| 2026-05-05 00:02 | 34.37892 | -78.89474 | 40178 ft | 352 kts | 221° |
| 2026-05-05 00:03 | 34.33879 | -78.92865 | 40174 ft | 352 kts | 221° |
| 2026-05-05 00:03 | 34.29858 | -78.96249 | 40184 ft | 352 kts | 221° |
| 2026-05-05 00:04 | 34.25864 | -78.99609 | 40184 ft | 352 kts | 221° |
| 2026-05-05 00:04 | 34.21848 | -79.02983 | 40186 ft | 351 kts | 221° |
| 2026-05-05 00:05 | 34.17840 | -79.06350 | 40190 ft | 351 kts | 221° |
| 2026-05-05 00:05 | 34.13827 | -79.09716 | 40191 ft | 351 kts | 221° |
| 2026-05-05 00:06 | 34.09810 | -79.13081 | 40190 ft | 352 kts | 221° |
| 2026-05-05 00:06 | 34.05789 | -79.16445 | 40188 ft | 352 kts | 221° |
| 2026-05-05 00:07 | 34.01763 | -79.19808 | 40192 ft | 352 kts | 221° |
| 2026-05-05 00:07 | 33.97740 | -79.23168 | 40208 ft | 352 kts | 221° |
| 2026-05-05 00:08 | 33.93743 | -79.26503 | 40209 ft | 352 kts | 221° |
| 2026-05-05 00:08 | 33.89719 | -79.29858 | 40209 ft | 352 kts | 221° |
| 2026-05-05 00:09 | 33.85692 | -79.33213 | 40206 ft | 352 kts | 221° |
| 2026-05-05 00:09 | 33.81664 | -79.36562 | 40206 ft | 352 kts | 221° |
| 2026-05-05 00:10 | 33.77634 | -79.39910 | 40208 ft | 352 kts | 221° |
| 2026-05-05 00:10 | 33.73607 | -79.43247 | 40216 ft | 351 kts | 221° |
| 2026-05-05 00:11 | 33.69612 | -79.46558 | 40204 ft | 351 kts | 221° |
| 2026-05-05 00:11 | 33.65589 | -79.49888 | 40214 ft | 351 kts | 221° |
| 2026-05-05 00:12 | 33.61562 | -79.53219 | 40212 ft | 352 kts | 221° |
| 2026-05-05 00:12 | 33.57522 | -79.56557 | 40102 ft | 355 kts | 221° |
| 2026-05-05 00:13 | 33.53455 | -79.59909 | 40099 ft | 355 kts | 221° |
| 2026-05-05 00:13 | 33.49398 | -79.63252 | 40084 ft | 353 kts | 221° |
| 2026-05-05 00:14 | 33.45379 | -79.66558 | 40086 ft | 352 kts | 221° |
| 2026-05-05 00:14 | 33.41343 | -79.69874 | 40082 ft | 352 kts | 221° |
| 2026-05-05 00:15 | 33.37314 | -79.73183 | 40079 ft | 351 kts | 221° |
| 2026-05-05 00:15 | 33.33286 | -79.76486 | 40083 ft | 351 kts | 221° |
| 2026-05-05 00:16 | 33.29264 | -79.79781 | 40091 ft | 350 kts | 221° |
| 2026-05-05 00:16 | 33.25237 | -79.83074 | 40086 ft | 350 kts | 221° |
| 2026-05-05 00:17 | 33.21243 | -79.86337 | 40083 ft | 350 kts | 221° |
| 2026-05-05 00:17 | 33.17222 | -79.89617 | 40081 ft | 350 kts | 221° |
| 2026-05-05 00:18 | 33.13198 | -79.92896 | 40083 ft | 350 kts | 221° |
| 2026-05-05 00:18 | 33.09176 | -79.96170 | 40082 ft | 350 kts | 221° |
| 2026-05-05 00:19 | 33.05152 | -79.99443 | 40085 ft | 350 kts | 221° |
| 2026-05-05 00:19 | 33.01127 | -80.02714 | 40093 ft | 350 kts | 221° |
| 2026-05-05 00:20 | 32.97129 | -80.05959 | 40092 ft | 350 kts | 221° |
| 2026-05-05 00:20 | 32.93100 | -80.09224 | 40095 ft | 350 kts | 221° |
| 2026-05-05 00:21 | 32.89072 | -80.12483 | 40091 ft | 350 kts | 221° |
| 2026-05-05 00:21 | 32.85042 | -80.15741 | 40090 ft | 350 kts | 221° |
| 2026-05-05 00:22 | 32.81010 | -80.18999 | 40095 ft | 351 kts | 221° |
| 2026-05-05 00:22 | 32.76972 | -80.22258 | 40077 ft | 351 kts | 221° |
| 2026-05-05 00:23 | 32.72971 | -80.25484 | 40095 ft | 350 kts | 221° |
| 2026-05-05 00:23 | 32.68947 | -80.28723 | 40094 ft | 350 kts | 221° |
| 2026-05-05 00:24 | 32.64922 | -80.31960 | 40095 ft | 349 kts | 221° |
| 2026-05-05 00:24 | 32.60898 | -80.35191 | 40092 ft | 349 kts | 221° |
| 2026-05-05 00:25 | 32.56824 | -80.38348 | 40088 ft | 353 kts | 217° |
| 2026-05-05 00:25 | 32.52557 | -80.41215 | 40088 ft | 352 kts | 218° |
| 2026-05-05 00:26 | 32.48342 | -80.44072 | 40086 ft | 351 kts | 218° |
| 2026-05-05 00:26 | 32.44102 | -80.46928 | 40087 ft | 350 kts | 218° |
| 2026-05-05 00:27 | 32.39866 | -80.49786 | 40089 ft | 350 kts | 218° |
| 2026-05-05 00:27 | 32.35632 | -80.52636 | 40089 ft | 350 kts | 218° |
| 2026-05-05 00:28 | 32.31401 | -80.55484 | 40092 ft | 350 kts | 218° |
| 2026-05-05 00:28 | 32.27159 | -80.58333 | 40090 ft | 351 kts | 218° |
| 2026-05-05 00:29 | 32.22953 | -80.61154 | 40085 ft | 350 kts | 218° |
| 2026-05-05 00:29 | 32.18723 | -80.63989 | 40106 ft | 350 kts | 218° |
| 2026-05-05 00:30 | 32.14496 | -80.66820 | 40106 ft | 349 kts | 218° |
| 2026-05-05 00:30 | 32.10268 | -80.69649 | 40102 ft | 349 kts | 218° |
| 2026-05-05 00:31 | 32.06042 | -80.72474 | 40099 ft | 349 kts | 218° |
| 2026-05-05 00:31 | 32.01814 | -80.75296 | 40093 ft | 349 kts | 218° |
| 2026-05-05 00:32 | 31.97594 | -80.78109 | 40082 ft | 348 kts | 219° |
| 2026-05-05 00:32 | 31.93388 | -80.80911 | 40069 ft | 347 kts | 218° |
| 2026-05-05 00:33 | 31.89207 | -80.83691 | 40065 ft | 347 kts | 219° |
| 2026-05-05 00:33 | 31.84995 | -80.86493 | 39840 ft | 350 kts | 219° |
| 2026-05-05 00:33 | 31.82888 | -80.87893 | 39470 ft | 346 kts | 218° |
| 2026-05-05 00:34 | 31.80800 | -80.89274 | 39107 ft | 342 kts | 219° |
| 2026-05-05 00:34 | 31.78735 | -80.90644 | 38744 ft | 339 kts | 219° |
| 2026-05-05 00:34 | 31.76690 | -80.92003 | 38299 ft | 337 kts | 219° |
| 2026-05-05 00:34 | 31.74657 | -80.93350 | 37823 ft | 335 kts | 219° |
| 2026-05-05 00:35 | 31.72637 | -80.94690 | 37395 ft | 332 kts | 219° |
| 2026-05-05 00:35 | 31.70630 | -80.96016 | 36978 ft | 330 kts | 219° |
| 2026-05-05 00:35 | 31.68636 | -80.97338 | 36571 ft | 328 kts | 219° |
| 2026-05-05 00:35 | 31.66649 | -80.98650 | 36171 ft | 326 kts | 219° |
| 2026-05-05 00:36 | 31.64704 | -80.99938 | 35781 ft | 325 kts | 219° |
| 2026-05-05 00:36 | 31.62737 | -81.01237 | 35396 ft | 324 kts | 219° |
| 2026-05-05 00:36 | 31.60775 | -81.02534 | 35014 ft | 323 kts | 218° |
| 2026-05-05 00:36 | 31.58820 | -81.03825 | 34638 ft | 322 kts | 218° |
| 2026-05-05 00:37 | 31.56833 | -81.05058 | 34262 ft | 323 kts | 216° |
| 2026-05-05 00:37 | 31.54846 | -81.06264 | 34081 ft | 317 kts | 217° |
| 2026-05-05 00:37 | 31.52920 | -81.07444 | 34080 ft | 310 kts | 217° |
| 2026-05-05 00:38 | 31.49134 | -81.09781 | 34075 ft | 310 kts | 217° |
| 2026-05-05 00:38 | 31.45332 | -81.12103 | 34070 ft | 307 kts | 218° |
| 2026-05-05 00:39 | 31.41550 | -81.14419 | 34077 ft | 306 kts | 218° |
| 2026-05-05 00:39 | 31.37750 | -81.16751 | 34082 ft | 320 kts | 218° |
| 2026-05-05 00:39 | 31.35705 | -81.17993 | 34095 ft | 342 kts | 216° |
| 2026-05-05 00:40 | 31.33520 | -81.19271 | 34100 ft | 360 kts | 216° |
| 2026-05-05 00:40 | 31.31261 | -81.20596 | 34098 ft | 375 kts | 216° |
| 2026-05-05 00:40 | 31.28893 | -81.22008 | 34096 ft | 388 kts | 216° |
| 2026-05-05 00:40 | 31.26448 | -81.23464 | 34101 ft | 400 kts | 215° |
| 2026-05-05 00:41 | 31.23942 | -81.24946 | 34099 ft | 401 kts | 215° |
| 2026-05-05 00:41 | 31.21495 | -81.26298 | 34073 ft | 379 kts | 212° |
| 2026-05-05 00:41 | 31.19048 | -81.27275 | 34080 ft | 365 kts | 206° |
| 2026-05-05 00:41 | 31.16609 | -81.27900 | 34080 ft | 354 kts | 200° |
| 2026-05-05 00:42 | 31.14187 | -81.28202 | 34082 ft | 346 kts | 195° |
| 2026-05-05 00:42 | 31.09511 | -81.28220 | 34079 ft | 323 kts | 193° |
| 2026-05-05 00:42 | 31.07301 | -81.28224 | 34080 ft | 312 kts | 193° |
| 2026-05-05 00:43 | 31.05191 | -81.28226 | 34079 ft | 303 kts | 193° |
| 2026-05-05 00:43 | 31.03115 | -81.28216 | 34076 ft | 294 kts | 194° |
| 2026-05-05 00:43 | 31.01097 | -81.28212 | 34078 ft | 286 kts | 194° |
| 2026-05-05 00:43 | 30.99134 | -81.28206 | 34077 ft | 278 kts | 195° |
| 2026-05-05 00:44 | 30.97219 | -81.28204 | 34073 ft | 272 kts | 195° |
| 2026-05-05 00:44 | 30.95349 | -81.28198 | 34077 ft | 266 kts | 195° |
| 2026-05-05 00:44 | 30.93520 | -81.28193 | 34073 ft | 259 kts | 195° |
| 2026-05-05 00:44 | 30.91734 | -81.28190 | 34068 ft | 254 kts | 197° |
| 2026-05-05 00:45 | 30.89981 | -81.28186 | 34071 ft | 250 kts | 196° |
| 2026-05-05 00:45 | 30.88258 | -81.28183 | 34073 ft | 245 kts | 197° |
| 2026-05-05 00:45 | 30.86560 | -81.28177 | 34076 ft | 242 kts | 197° |
| 2026-05-05 00:45 | 30.84893 | -81.28175 | 34078 ft | 238 kts | 197° |
| 2026-05-05 00:46 | 30.83244 | -81.28169 | 34075 ft | 235 kts | 197° |
| 2026-05-05 00:46 | 30.81641 | -81.28168 | 34093 ft | 232 kts | 198° |
| 2026-05-05 00:46 | 30.80036 | -81.28161 | 34080 ft | 229 kts | 198° |
| 2026-05-05 00:46 | 30.78452 | -81.28160 | 34081 ft | 226 kts | 198° |
| 2026-05-05 00:47 | 30.76876 | -81.28155 | 34091 ft | 231 kts | 198° |
| 2026-05-05 00:47 | 30.75168 | -81.28190 | 34105 ft | 261 kts | 197° |
| 2026-05-05 00:47 | 30.73245 | -81.28192 | 34118 ft | 291 kts | 194° |
| 2026-05-05 00:47 | 30.71119 | -81.28175 | 34016 ft | 321 kts | 193° |
| 2026-05-05 00:48 | 30.68802 | -81.28159 | 33525 ft | 340 kts | 192° |
| 2026-05-05 00:48 | 30.66411 | -81.28131 | 32947 ft | 347 kts | 191° |
| 2026-05-05 00:48 | 30.63977 | -81.28125 | 32420 ft | 352 kts | 191° |
| 2026-05-05 00:48 | 30.61506 | -81.28125 | 31868 ft | 358 kts | 191° |
| 2026-05-05 00:49 | 30.58988 | -81.28073 | 31291 ft | 367 kts | 188° |
| 2026-05-05 00:49 | 30.56422 | -81.27920 | 30707 ft | 371 kts | 188° |
| 2026-05-05 00:49 | 30.53862 | -81.27780 | 30120 ft | 374 kts | 188° |
| 2026-05-05 00:49 | 30.51253 | -81.27658 | 29475 ft | 376 kts | 188° |
| 2026-05-05 00:50 | 30.48642 | -81.27523 | 28885 ft | 376 kts | 187° |
| 2026-05-05 00:50 | 30.46028 | -81.27389 | 28293 ft | 376 kts | 187° |
| 2026-05-05 00:50 | 30.43419 | -81.27250 | 27703 ft | 376 kts | 186° |
| 2026-05-05 00:50 | 30.40809 | -81.27122 | 27113 ft | 375 kts | 186° |
| 2026-05-05 00:51 | 30.38202 | -81.26986 | 26525 ft | 375 kts | 186° |
| 2026-05-05 00:51 | 30.35596 | -81.26855 | 25934 ft | 375 kts | 185° |
| 2026-05-05 00:51 | 30.32993 | -81.26720 | 25348 ft | 374 kts | 185° |
| 2026-05-05 00:51 | 30.30389 | -81.26588 | 24761 ft | 374 kts | 185° |
| 2026-05-05 00:52 | 30.27793 | -81.26456 | 24188 ft | 374 kts | 184° |
| 2026-05-05 00:52 | 30.25274 | -81.26315 | 24088 ft | 359 kts | 184° |
| 2026-05-05 00:52 | 30.22825 | -81.26148 | 23959 ft | 348 kts | 184° |
| 2026-05-05 00:52 | 30.20416 | -81.26001 | 23573 ft | 346 kts | 184° |
| 2026-05-05 00:53 | 30.18012 | -81.25855 | 22973 ft | 345 kts | 183° |
| 2026-05-05 00:53 | 30.15624 | -81.25713 | 22371 ft | 343 kts | 183° |
| 2026-05-05 00:53 | 30.13245 | -81.25563 | 21676 ft | 343 kts | 182° |
| 2026-05-05 00:53 | 30.10878 | -81.25417 | 20910 ft | 339 kts | 182° |
| 2026-05-05 00:54 | 30.08542 | -81.25272 | 20214 ft | 333 kts | 182° |
| 2026-05-05 00:54 | 30.06246 | -81.25131 | 19552 ft | 328 kts | 182° |
| 2026-05-05 00:54 | 30.03978 | -81.24995 | 18891 ft | 324 kts | 182° |
| 2026-05-05 00:54 | 30.01762 | -81.24856 | 18217 ft | 322 kts | 182° |
| 2026-05-05 00:55 | 29.99566 | -81.24724 | 17734 ft | 311 kts | 181° |
| 2026-05-05 00:55 | 29.97439 | -81.24587 | 17255 ft | 302 kts | 181° |
| 2026-05-05 00:55 | 29.95372 | -81.24466 | 16788 ft | 294 kts | 181° |
| 2026-05-05 00:55 | 29.93350 | -81.24339 | 16332 ft | 288 kts | 181° |
| 2026-05-05 00:56 | 29.91382 | -81.24244 | 16102 ft | 274 kts | 182° |
| 2026-05-05 00:56 | 29.89540 | -81.24185 | 15983 ft | 259 kts | 182° |
| 2026-05-05 00:56 | 29.87739 | -81.24113 | 15586 ft | 259 kts | 182° |
| 2026-05-05 00:56 | 29.85940 | -81.24040 | 15162 ft | 259 kts | 181° |
| 2026-05-05 00:57 | 29.84139 | -81.23979 | 14694 ft | 260 kts | 181° |
| 2026-05-05 00:57 | 29.82300 | -81.23911 | 14089 ft | 267 kts | 181° |
| 2026-05-05 00:57 | 29.80426 | -81.23845 | 13553 ft | 269 kts | 181° |
| 2026-05-05 00:57 | 29.78630 | -81.23773 | 13380 ft | 255 kts | 181° |
| 2026-05-05 00:58 | 29.76888 | -81.23712 | 13196 ft | 249 kts | 181° |
| 2026-05-05 00:58 | 29.75157 | -81.23649 | 13010 ft | 249 kts | 181° |
| 2026-05-05 00:58 | 29.73427 | -81.23588 | 12826 ft | 249 kts | 181° |
| 2026-05-05 00:58 | 29.71693 | -81.23526 | 12634 ft | 249 kts | 181° |
| 2026-05-05 00:59 | 29.69956 | -81.23461 | 12447 ft | 250 kts | 181° |
| 2026-05-05 00:59 | 29.68218 | -81.23400 | 12255 ft | 250 kts | 181° |
| 2026-05-05 00:59 | 29.67065 | -81.23355 | 12133 ft | 250 kts | 181° |
| 2026-05-05 00:59 | 29.65321 | -81.23288 | 12006 ft | 251 kts | 180° |
| 2026-05-05 01:00 | 29.63581 | -81.23178 | 11822 ft | 254 kts | 180° |
| 2026-05-05 01:00 | 29.61772 | -81.23074 | 11442 ft | 263 kts | 180° |
| 2026-05-05 01:00 | 29.59947 | -81.22968 | 11266 ft | 262 kts | 180° |
| 2026-05-05 01:00 | 29.58130 | -81.22874 | 11076 ft | 262 kts | 180° |
| 2026-05-05 01:01 | 29.56309 | -81.22767 | 10882 ft | 262 kts | 180° |
| 2026-05-05 01:01 | 29.54489 | -81.22671 | 10684 ft | 262 kts | 180° |
| 2026-05-05 01:01 | 29.52668 | -81.22567 | 10476 ft | 262 kts | 179° |
| 2026-05-05 01:01 | 29.50847 | -81.22468 | 10280 ft | 262 kts | 179° |
| 2026-05-05 01:02 | 29.49024 | -81.22363 | 10082 ft | 262 kts | 180° |
| 2026-05-05 01:02 | 29.47222 | -81.22269 | 9879 ft | 263 kts | 179° |
| 2026-05-05 01:02 | 29.45397 | -81.22162 | 9668 ft | 262 kts | 179° |
| 2026-05-05 01:02 | 29.43574 | -81.22067 | 9464 ft | 262 kts | 179° |
| 2026-05-05 01:03 | 29.41753 | -81.21960 | 9266 ft | 262 kts | 179° |
| 2026-05-05 01:03 | 29.39937 | -81.21864 | 9067 ft | 261 kts | 179° |
| 2026-05-05 01:03 | 29.38123 | -81.21761 | 8870 ft | 261 kts | 179° |
| 2026-05-05 01:03 | 29.36312 | -81.21664 | 8672 ft | 261 kts | 179° |
| 2026-05-05 01:04 | 29.34499 | -81.21584 | 8465 ft | 260 kts | 180° |
| 2026-05-05 01:04 | 29.30885 | -81.21444 | 8076 ft | 260 kts | 180° |
| 2026-05-05 01:04 | 29.29078 | -81.21371 | 7880 ft | 260 kts | 179° |
| 2026-05-05 01:05 | 29.27296 | -81.21296 | 7683 ft | 260 kts | 180° |
| 2026-05-05 01:05 | 29.25494 | -81.21219 | 7494 ft | 259 kts | 179° |
| 2026-05-05 01:05 | 29.23703 | -81.21107 | 7295 ft | 257 kts | 177° |
| 2026-05-05 01:05 | 29.21923 | -81.20980 | 7102 ft | 255 kts | 179° |
| 2026-05-05 01:06 | 29.20152 | -81.20878 | 6910 ft | 254 kts | 178° |
| 2026-05-05 01:06 | 29.18390 | -81.20762 | 6738 ft | 254 kts | 178° |
| 2026-05-05 01:06 | 29.16631 | -81.20641 | 6556 ft | 253 kts | 178° |
| 2026-05-05 01:06 | 29.14878 | -81.20520 | 6358 ft | 252 kts | 178° |
| 2026-05-05 01:07 | 29.13130 | -81.20406 | 6163 ft | 252 kts | 178° |
| 2026-05-05 01:07 | 29.11384 | -81.20304 | 5969 ft | 250 kts | 181° |
| 2026-05-05 01:07 | 29.09649 | -81.20319 | 5780 ft | 249 kts | 181° |
| 2026-05-05 01:07 | 29.07920 | -81.20287 | 5595 ft | 249 kts | 180° |
| 2026-05-05 01:08 | 29.06210 | -81.20265 | 5399 ft | 249 kts | 181° |
| 2026-05-05 01:08 | 29.04479 | -81.20247 | 5217 ft | 249 kts | 181° |
| 2026-05-05 01:08 | 29.02751 | -81.20255 | 5039 ft | 247 kts | 185° |
| 2026-05-05 01:08 | 29.01119 | -81.20717 | 5022 ft | 238 kts | 199° |
| 2026-05-05 01:09 | 28.99535 | -81.21188 | 5016 ft | 233 kts | 194° |
| 2026-05-05 01:09 | 28.97973 | -81.21631 | 5013 ft | 229 kts | 197° |
| 2026-05-05 01:09 | 28.96438 | -81.22100 | 5010 ft | 227 kts | 196° |
| 2026-05-05 01:09 | 28.94926 | -81.22562 | 5010 ft | 224 kts | 197° |
| 2026-05-05 01:10 | 28.93399 | -81.23027 | 4785 ft | 231 kts | 197° |
| 2026-05-05 01:10 | 28.91827 | -81.23505 | 4533 ft | 237 kts | 197° |
| 2026-05-05 01:10 | 28.90257 | -81.24048 | 4286 ft | 241 kts | 197° |
| 2026-05-05 01:10 | 28.88640 | -81.24612 | 4044 ft | 245 kts | 198° |
| 2026-05-05 01:11 | 28.87039 | -81.25218 | 4017 ft | 239 kts | 197° |
| 2026-05-05 01:11 | 28.85505 | -81.25880 | 4007 ft | 234 kts | 208° |
| 2026-05-05 01:11 | 28.84266 | -81.27058 | 3989 ft | 230 kts | 223° |
| 2026-05-05 01:11 | 28.83104 | -81.28299 | 3938 ft | 230 kts | 223° |
| 2026-05-05 01:12 | 28.81937 | -81.29576 | 3762 ft | 235 kts | 223° |
| 2026-05-05 01:12 | 28.80762 | -81.30891 | 3565 ft | 238 kts | 222° |
| 2026-05-05 01:12 | 28.79587 | -81.32239 | 3377 ft | 241 kts | 223° |
| 2026-05-05 01:12 | 28.78422 | -81.33586 | 3180 ft | 242 kts | 223° |
| 2026-05-05 01:13 | 28.77238 | -81.34960 | 2984 ft | 244 kts | 223° |
| 2026-05-05 01:13 | 28.76046 | -81.36344 | 2784 ft | 245 kts | 223° |
| 2026-05-05 01:13 | 28.74859 | -81.37732 | 2583 ft | 241 kts | 223° |
| 2026-05-05 01:13 | 28.73716 | -81.39071 | 2387 ft | 227 kts | 223° |
| 2026-05-05 01:14 | 28.72658 | -81.40339 | 2187 ft | 218 kts | 223° |
| 2026-05-05 01:14 | 28.71636 | -81.41582 | 2000 ft | 213 kts | 223° |
| 2026-05-05 01:14 | 28.70642 | -81.42796 | 1992 ft | 207 kts | 223° |
| 2026-05-05 01:14 | 28.69670 | -81.43995 | 1985 ft | 205 kts | 223° |
| 2026-05-05 01:15 | 28.68713 | -81.45186 | 1982 ft | 202 kts | 223° |
| 2026-05-05 01:15 | 28.67779 | -81.46359 | 1975 ft | 199 kts | 230° |
| 2026-05-05 01:15 | 28.67174 | -81.47761 | 1984 ft | 202 kts | 244° |
| 2026-05-05 01:15 | 28.66591 | -81.49224 | 1981 ft | 204 kts | 242° |
| 2026-05-05 01:16 | 28.66011 | -81.50713 | 1981 ft | 206 kts | 243° |
| 2026-05-05 01:16 | 28.65414 | -81.52204 | 1983 ft | 208 kts | 244° |
| 2026-05-05 01:16 | 28.64676 | -81.53586 | 1968 ft | 202 kts | 218° |
| 2026-05-05 01:16 | 28.63435 | -81.54091 | 1978 ft | 188 kts | 173° |
| 2026-05-05 01:17 | 28.62212 | -81.53679 | 1985 ft | 183 kts | 153° |
| 2026-05-05 01:17 | 28.61022 | -81.53167 | 1988 ft | 182 kts | 154° |
| 2026-05-05 01:17 | 28.59848 | -81.52634 | 1994 ft | 182 kts | 154° |
| 2026-05-05 01:17 | 28.58670 | -81.52097 | 1997 ft | 182 kts | 153° |
| 2026-05-05 01:18 | 28.57494 | -81.51555 | 1996 ft | 182 kts | 153° |
| 2026-05-05 01:18 | 28.56337 | -81.51026 | 1996 ft | 177 kts | 153° |
| 2026-05-05 01:18 | 28.55239 | -81.50488 | 1993 ft | 170 kts | 147° |
| 2026-05-05 01:18 | 28.54154 | -81.49949 | 1988 ft | 171 kts | 155° |
| 2026-05-05 01:19 | 28.53044 | -81.49474 | 1983 ft | 170 kts | 154° |
| 2026-05-05 01:19 | 28.51939 | -81.49006 | 1984 ft | 169 kts | 154° |
| 2026-05-05 01:19 | 28.50883 | -81.48470 | 1983 ft | 162 kts | 142° |
| 2026-05-05 01:19 | 28.50026 | -81.47659 | 1985 ft | 159 kts | 133° |
| 2026-05-05 01:20 | 28.49299 | -81.46742 | 1978 ft | 153 kts | 112° |
| 2026-05-05 01:20 | 28.49338 | -81.45587 | 1987 ft | 150 kts | 73° |
| 2026-05-05 01:20 | 28.49820 | -81.44509 | 1870 ft | 159 kts | 59° |
| 2026-05-05 01:20 | 28.50449 | -81.43473 | 1723 ft | 153 kts | 60° |
| 2026-05-05 01:21 | 28.50981 | -81.42518 | 1516 ft | 134 kts | 64° |
| 2026-05-05 01:21 | 28.51360 | -81.41580 | 1388 ft | 130 kts | 69° |
| 2026-05-05 01:21 | 28.51717 | -81.40628 | 1243 ft | 130 kts | 67° |
| 2026-05-05 01:21 | 28.52073 | -81.39719 | 1091 ft | 119 kts | 69° |
| 2026-05-05 01:22 | 28.52386 | -81.38923 | 944 ft | 108 kts | 69° |
| 2026-05-05 01:22 | 28.52677 | -81.38157 | 806 ft | 105 kts | 68° |
| 2026-05-05 01:22 | 28.52960 | -81.37389 | 686 ft | 105 kts | 68° |
| 2026-05-05 01:22 | 28.53264 | -81.36627 | 544 ft | 106 kts | 68° |
| 2026-05-05 01:23 | 28.53556 | -81.35861 | 419 ft | 106 kts | 69° |
| 2026-05-05 01:23 | 28.53843 | -81.35087 | 316 ft | 107 kts | 70° |
| 2026-05-05 01:23 | 28.54133 | -81.34315 | 194 ft | 104 kts | 68° |
| 2026-05-05 01:23 | 28.54418 | -81.33578 | 118 ft | 95 kts | 69° |
| 2026-05-05 01:24 | 28.54632 | -81.33010 | 116 ft | 56 kts | 68° |
| 2026-05-05 01:24 | 28.54719 | -81.32817 | 114 ft | 17 kts | 29° |
| 2026-05-05 01:24 | 28.54764 | -81.32831 | 114 ft | 0 kts | 316° |
| 2026-05-05 01:24 | 28.54776 | -81.32847 | 113 ft | 9 kts | 304° |
| 2026-05-05 01:25 | 28.54794 | -81.32882 | 114 ft | 0 kts | 302° |
| 2026-05-05 01:25 | 28.54811 | -81.32916 | 114 ft | 12 kts | 291° |
| 2026-05-05 01:25 | 28.54788 | -81.32995 | 114 ft | 17 kts | 248° |
| 2026-05-05 01:26 | 28.54739 | -81.33125 | 114 ft | 13 kts | 250° |
| 2026-05-05 01:26 | 28.54779 | -81.33170 | 114 ft | 14 kts | 357° |